Time;durP1;ratioP1;P1;durP2;ratioP2;P2;SDS_P1;SDS_P2;PMS_P1;PMS_P2;Temp;Humidity;BMP_temperature;BMP_pressure;BME280_temperature;BME280_humidity;BME280_pressure;Samples;Min_cycle;Max_cycle;Signal;HPM_P1;HPM_P2
2023/07/08 00:01:15;;;;;;;;;;;13.80;93.60;;;;;;5093825;28;19908;-64
2023/07/08 00:03:42;;;;;;;;;;;13.70;93.50;;;;;;5093222;28;19969;-64
2023/07/08 00:06:12;;;;;;;;;;;13.80;93.40;;;;;;5093535;28;19908;-63
2023/07/08 00:08:38;;;;;;;;;;;13.90;93.30;;;;;;5093391;28;19912;-64
2023/07/08 00:11:10;;;;;;;;;;;13.90;92.50;;;;;;5093239;28;20434;-65
2023/07/08 00:13:36;;;;;;;;;;;14.00;92.60;;;;;;5093260;28;19908;-63
2023/07/08 00:16:03;;;;;;;;;;;14.00;92.50;;;;;;5092955;28;20351;-63
2023/07/08 00:18:30;;;;;;;;;;;14.10;92.30;;;;;;5093208;28;19916;-63
2023/07/08 00:20:58;;;;;;;;;;;14.10;92.20;;;;;;5093230;28;19916;-64
2023/07/08 00:23:25;;;;;;;;;;;14.20;92.20;;;;;;5092984;28;19923;-65
2023/07/08 00:25:52;;;;;;;;;;;14.30;91.80;;;;;;5092922;28;19912;-63
2023/07/08 00:28:20;;;;;;;;;;;14.30;91.30;;;;;;5093271;28;19908;-64
2023/07/08 00:30:46;;;;;;;;;;;14.50;91.30;;;;;;5092964;28;19997;-63
2023/07/08 00:33:13;;;;;;;;;;;14.40;91.20;;;;;;5092962;28;19950;-64
2023/07/08 00:35:40;;;;;;;;;;;14.60;90.80;;;;;;5093008;28;20369;-64
2023/07/08 00:38:19;;;;;;;;;;;14.60;90.00;;;;;;5093122;28;20303;-63
2023/07/08 00:40:50;;;;;;;;;;;14.70;90.70;;;;;;5092927;28;19908;-64
2023/07/08 00:43:17;;;;;;;;;;;14.80;90.50;;;;;;5092968;28;19916;-70
2023/07/08 00:45:52;;;;;;;;;;;14.80;90.30;;;;;;5092879;28;19920;-70
2023/07/08 00:48:18;;;;;;;;;;;15.00;90.40;;;;;;5092786;28;20409;-66
2023/07/08 00:50:45;;;;;;;;;;;15.00;89.70;;;;;;5092820;28;19912;-66
2023/07/08 00:53:25;;;;;;;;;;;15.00;90.00;;;;;;5092991;28;19908;-67
2023/07/08 00:55:53;;;;;;;;;;;15.10;90.20;;;;;;5092494;28;19919;-67
2023/07/08 00:58:20;;;;;;;;;;;15.20;90.40;;;;;;5092604;28;19908;-66
2023/07/08 01:00:49;;;;;;;;;;;15.20;90.00;;;;;;5092715;28;20019;-64
2023/07/08 01:03:17;;;;;;;;;;;15.40;89.20;;;;;;5092586;28;20357;-64
2023/07/08 01:05:44;;;;;;;;;;;15.50;86.80;;;;;;5096073;28;19954;-64
2023/07/08 01:08:11;;;;;;;;;;;15.50;86.80;;;;;;5096768;28;19958;-64
2023/07/08 01:10:39;;;;;;;;;;;15.60;86.20;;;;;;5096863;28;19914;-65
2023/07/08 01:13:08;;;;;;;;;;;15.70;87.10;;;;;;5096800;28;19955;-64
2023/07/08 01:15:40;;;;;;;;;;;15.80;86.50;;;;;;5096552;28;19908;-67
2023/07/08 01:18:09;;;;;;;;;;;15.90;85.80;;;;;;5096618;28;19915;-67
2023/07/08 01:20:37;;;;;;;;;;;15.90;85.10;;;;;;5096599;28;19908;-67
2023/07/08 01:23:04;;;;;;;;;;;16.00;86.10;;;;;;5096507;28;20287;-67
2023/07/08 01:25:32;;;;;;;;;;;16.10;85.40;;;;;;5096683;28;19919;-67
2023/07/08 01:27:58;;;;;;;;;;;16.20;85.10;;;;;;5096404;28;19951;-64
2023/07/08 01:30:26;;;;;;;;;;;16.20;84.40;;;;;;5096256;28;19934;-64
2023/07/08 01:32:56;;;;;;;;;;;16.30;84.30;;;;;;5096422;28;19915;-64
2023/07/08 01:35:23;;;;;;;;;;;16.40;84.20;;;;;;5096374;28;19914;-66
2023/07/08 01:37:52;;;;;;;;;;;16.60;81.50;;;;;;5096156;28;19908;-65
2023/07/08 01:40:26;;;;;;;;;;;16.70;81.00;;;;;;5096377;28;19908;-64
2023/07/08 01:42:53;;;;;;;;;;;16.80;80.30;;;;;;5096289;28;20018;-64
2023/07/08 01:45:21;;;;;;;;;;;16.80;79.70;;;;;;5096018;28;20325;-70
2023/07/08 01:47:53;;;;;;;;;;;17.00;79.50;;;;;;5096282;28;19908;-68
2023/07/08 01:50:21;;;;;;;;;;;17.10;78.70;;;;;;5095972;28;20049;-62
2023/07/08 01:52:48;;;;;;;;;;;17.20;78.70;;;;;;5096047;28;20433;-64
2023/07/08 01:55:15;;;;;;;;;;;17.30;78.70;;;;;;5096016;28;20303;-67
2023/07/08 01:57:42;;;;;;;;;;;17.40;78.70;;;;;;5095823;28;19908;-64
2023/07/08 02:00:08;;;;;;;;;;;17.40;78.00;;;;;;5095757;28;19912;-68
2023/07/08 02:02:35;;;;;;;;;;;17.50;78.20;;;;;;5095867;28;19909;-64
2023/07/08 02:05:02;;;;;;;;;;;17.70;77.40;;;;;;5095782;28;19909;-62
2023/07/08 02:07:28;;;;;;;;;;;17.80;77.50;;;;;;5095966;28;19954;-64
2023/07/08 02:09:55;;;;;;;;;;;17.70;77.20;;;;;;5095535;28;20350;-66
2023/07/08 02:12:22;;;;;;;;;;;17.80;77.90;;;;;;5095645;28;19908;-64
2023/07/08 02:14:48;;;;;;;;;;;17.80;76.70;;;;;;5095660;28;19908;-63
2023/07/08 02:17:16;;;;;;;;;;;17.90;75.50;;;;;;5094553;28;19908;-63
2023/07/08 02:19:43;;;;;;;;;;;17.90;75.10;;;;;;5095438;28;19947;-64
2023/07/08 02:22:10;;;;;;;;;;;17.90;74.40;;;;;;5095695;28;20459;-63
2023/07/08 02:24:37;;;;;;;;;;;17.90;74.60;;;;;;5095395;28;20361;-66
2023/07/08 02:27:04;;;;;;;;;;;17.90;75.10;;;;;;5095373;28;19914;-64
2023/07/08 02:29:32;;;;;;;;;;;17.90;75.70;;;;;;5095060;28;20041;-64
2023/07/08 02:31:58;;;;;;;;;;;18.00;74.00;;;;;;5095146;28;20018;-65
2023/07/08 02:34:25;;;;;;;;;;;18.10;73.40;;;;;;5095192;28;19915;-64
2023/07/08 02:36:51;;;;;;;;;;;18.20;72.60;;;;;;5095134;28;19915;-68
2023/07/08 02:39:18;;;;;;;;;;;18.50;72.80;;;;;;5095024;28;19943;-70
2023/07/08 02:41:45;;;;;;;;;;;18.60;73.00;;;;;;5095060;28;19915;-62
2023/07/08 02:44:11;;;;;;;;;;;18.60;72.40;;;;;;5094964;28;19916;-64
2023/07/08 02:46:38;;;;;;;;;;;18.80;72.40;;;;;;5094945;28;19920;-65
2023/07/08 02:49:05;;;;;;;;;;;18.90;72.40;;;;;;5094784;28;19915;-66
2023/07/08 02:51:32;;;;;;;;;;;19.00;71.40;;;;;;5094661;28;20328;-69
2023/07/08 02:53:58;;;;;;;;;;;19.30;70.70;;;;;;5094717;28;19911;-69
2023/07/08 02:56:28;;;;;;;;;;;19.60;71.70;;;;;;5094793;28;20015;-67
2023/07/08 02:58:55;;;;;;;;;;;19.90;70.70;;;;;;5094584;28;19916;-64
2023/07/08 03:01:23;;;;;;;;;;;20.20;69.40;;;;;;5094643;28;19965;-62
2023/07/08 03:03:50;;;;;;;;;;;20.40;68.70;;;;;;5094746;28;19966;-67
2023/07/08 03:06:16;;;;;;;;;;;20.60;68.80;;;;;;5094478;28;20360;-64
2023/07/08 03:08:43;;;;;;;;;;;20.70;68.00;;;;;;5076332;28;19908;-67
2023/07/08 03:11:10;;;;;;;;;;;20.70;67.50;;;;;;5094279;28;19908;-63
2023/07/08 03:13:37;;;;;;;;;;;20.80;67.00;;;;;;5094355;28;19908;-68
2023/07/08 03:16:12;;;;;;;;;;;20.80;66.20;;;;;;5094262;28;19912;-69
2023/07/08 03:18:45;;;;;;;;;;;20.70;66.50;;;;;;5094451;28;19908;-68
2023/07/08 03:21:13;;;;;;;;;;;20.60;66.00;;;;;;5094096;28;20296;-64
2023/07/08 03:23:40;;;;;;;;;;;20.80;66.00;;;;;;5094210;28;19916;-66
2023/07/08 03:26:06;;;;;;;;;;;21.30;66.30;;;;;;5075788;28;19919;-68
2023/07/08 03:28:33;;;;;;;;;;;21.80;65.50;;;;;;5094190;28;19909;-62
2023/07/08 03:31:00;;;;;;;;;;;22.00;64.10;;;;;;5075787;28;19908;-63
2023/07/08 03:33:26;;;;;;;;;;;22.00;63.70;;;;;;5094047;28;19915;-64
2023/07/08 03:35:53;;;;;;;;;;;21.80;63.90;;;;;;5093915;28;20025;-65
2023/07/08 03:38:20;;;;;;;;;;;22.10;63.30;;;;;;5075719;28;20383;-63
2023/07/08 03:40:47;;;;;;;;;;;22.90;63.50;;;;;;5093832;28;19955;-63
2023/07/08 03:43:13;;;;;;;;;;;24.10;61.20;;;;;;5094022;28;20253;-65
2023/07/08 03:45:40;;;;;;;;;;;25.10;59.20;;;;;;5093399;28;19920;-67
2023/07/08 03:48:06;;;;;;;;;;;26.20;57.80;;;;;;5093716;28;19912;-65
2023/07/08 03:50:33;;;;;;;;;;;27.30;57.70;;;;;;5093791;28;19953;-66
2023/07/08 03:53:00;;;;;;;;;;;28.40;55.30;;;;;;5093964;28;20003;-66
2023/07/08 03:55:28;;;;;;;;;;;28.50;54.20;;;;;;5093552;28;20390;-65
2023/07/08 03:57:54;;;;;;;;;;;28.20;53.50;;;;;;5093506;28;20026;-65
2023/07/08 04:00:21;;;;;;;;;;;28.40;54.10;;;;;;5093184;28;19912;-63
2023/07/08 04:02:48;;;;;;;;;;;28.20;52.50;;;;;;5075365;28;19908;-64
2023/07/08 04:05:19;;;;;;;;;;;27.70;53.00;;;;;;5093635;28;19912;-71
2023/07/08 04:07:46;;;;;;;;;;;27.20;53.40;;;;;;5093574;28;19919;-65
2023/07/08 04:10:13;;;;;;;;;;;27.50;53.70;;;;;;5093491;28;19915;-66
2023/07/08 04:12:40;;;;;;;;;;;27.40;53.30;;;;;;5093425;28;19915;-66
2023/07/08 04:15:10;;;;;;;;;;;27.00;53.30;;;;;;5093403;28;20353;-68
2023/07/08 04:17:47;;;;;;;;;;;25.90;54.30;;;;;;5093365;28;19977;-69
2023/07/08 04:20:15;;;;;;;;;;;24.40;55.90;;;;;;5093456;28;19908;-65
2023/07/08 04:22:41;;;;;;;;;;;23.00;57.60;;;;;;5093232;28;19966;-65
2023/07/08 04:25:10;;;;;;;;;;;22.10;59.30;;;;;;5093462;28;19916;-67
2023/07/08 04:27:37;;;;;;;;;;;21.60;61.00;;;;;;5093044;28;19962;-69
2023/07/08 04:30:04;;;;;;;;;;;21.20;62.10;;;;;;5093007;28;20331;-70
2023/07/08 04:32:31;;;;;;;;;;;20.90;61.80;;;;;;5075162;28;19908;-63
2023/07/08 04:34:58;;;;;;;;;;;20.60;61.80;;;;;;5093192;28;19954;-67
2023/07/08 04:37:24;;;;;;;;;;;20.30;62.50;;;;;;5093144;28;19908;-69
2023/07/08 04:39:51;;;;;;;;;;;20.20;62.80;;;;;;5092457;28;20305;-64
2023/07/08 04:42:18;;;;;;;;;;;20.20;63.50;;;;;;5093372;28;20311;-65
2023/07/08 04:44:44;;;;;;;;;;;20.10;63.60;;;;;;5093027;28;20015;-63
2023/07/08 04:47:13;;;;;;;;;;;20.10;63.70;;;;;;5093079;28;19908;-65
2023/07/08 04:49:43;;;;;;;;;;;20.10;64.30;;;;;;5092942;28;20003;-63
2023/07/08 04:52:10;;;;;;;;;;;20.00;64.20;;;;;;5092766;28;20311;-62
2023/07/08 04:54:37;;;;;;;;;;;20.10;64.50;;;;;;5092754;28;19915;-64
2023/07/08 04:57:03;;;;;;;;;;;20.10;64.70;;;;;;5092846;28;19908;-64
2023/07/08 04:59:34;;;;;;;;;;;20.00;64.20;;;;;;5092748;28;19908;-63
2023/07/08 05:02:00;;;;;;;;;;;20.10;64.50;;;;;;5092586;28;19916;-62
2023/07/08 05:04:27;;;;;;;;;;;20.10;64.80;;;;;;5092612;28;20598;-64
2023/07/08 05:06:54;;;;;;;;;;;20.10;65.10;;;;;;5092811;28;19908;-64
2023/07/08 05:09:23;;;;;;;;;;;20.10;65.00;;;;;;5092755;28;20313;-63
2023/07/08 05:11:49;;;;;;;;;;;20.10;65.80;;;;;;5092702;28;19998;-63
2023/07/08 05:14:16;;;;;;;;;;;20.20;65.50;;;;;;5092788;28;19909;-64
2023/07/08 05:16:43;;;;;;;;;;;20.30;65.60;;;;;;5092564;28;20353;-65
2023/07/08 05:19:10;;;;;;;;;;;20.50;65.00;;;;;;5092646;28;20369;-63
2023/07/08 05:21:37;;;;;;;;;;;20.50;65.20;;;;;;5092680;28;19912;-65
2023/07/08 05:24:05;;;;;;;;;;;20.40;65.30;;;;;;5092487;28;19982;-64
2023/07/08 05:26:32;;;;;;;;;;;20.10;65.90;;;;;;5092599;28;20011;-64
2023/07/08 05:28:59;;;;;;;;;;;20.10;66.60;;;;;;5092208;28;19908;-66
2023/07/08 05:31:26;;;;;;;;;;;20.00;67.40;;;;;;5092386;28;20286;-65
2023/07/08 05:33:53;;;;;;;;;;;20.00;67.70;;;;;;5092674;28;19912;-63
2023/07/08 05:36:20;;;;;;;;;;;20.00;67.70;;;;;;5092548;28;20410;-64
2023/07/08 05:38:46;;;;;;;;;;;20.10;67.90;;;;;;5092483;28;20424;-64
2023/07/08 05:41:13;;;;;;;;;;;20.10;67.80;;;;;;5092337;28;19908;-64
2023/07/08 05:43:39;;;;;;;;;;;20.20;68.60;;;;;;5092269;28;19916;-63
2023/07/08 05:46:06;;;;;;;;;;;20.30;68.40;;;;;;5092390;28;19924;-63
2023/07/08 05:48:33;;;;;;;;;;;20.30;68.00;;;;;;5092462;28;19912;-63
2023/07/08 05:50:59;;;;;;;;;;;20.30;68.00;;;;;;5092632;28;20341;-63
2023/07/08 05:53:26;;;;;;;;;;;20.40;68.70;;;;;;5095838;28;19915;-63
2023/07/08 05:55:53;;;;;;;;;;;20.50;68.60;;;;;;5096202;28;19909;-64
2023/07/08 05:58:19;;;;;;;;;;;20.20;68.80;;;;;;5077485;28;20361;-62
2023/07/08 06:00:46;;;;;;;;;;;20.00;69.50;;;;;;5095770;28;20303;-67
2023/07/08 06:03:13;;;;;;;;;;;20.10;69.40;;;;;;5095588;28;20280;-65
2023/07/08 06:05:39;;;;;;;;;;;20.40;69.00;;;;;;5095734;28;19912;-65
2023/07/08 06:08:07;;;;;;;;;;;20.50;68.60;;;;;;5095674;28;19908;-65
2023/07/08 06:10:34;;;;;;;;;;;20.80;68.40;;;;;;5095603;28;19916;-64
2023/07/08 06:13:01;;;;;;;;;;;21.10;67.90;;;;;;5095809;28;19993;-63
2023/07/08 06:15:27;;;;;;;;;;;20.90;68.20;;;;;;5095539;28;19908;-66
2023/07/08 06:17:54;;;;;;;;;;;20.80;68.80;;;;;;5095637;28;19991;-64
2023/07/08 06:20:21;;;;;;;;;;;20.70;68.60;;;;;;5095436;28;20315;-62
2023/07/08 06:22:47;;;;;;;;;;;20.50;68.90;;;;;;5095201;28;19912;-64
2023/07/08 06:25:14;;;;;;;;;;;20.20;68.90;;;;;;5095272;28;19912;-66
2023/07/08 06:27:40;;;;;;;;;;;19.90;69.60;;;;;;5095603;28;20401;-63
2023/07/08 06:30:08;;;;;;;;;;;19.70;71.00;;;;;;5095306;28;20388;-63
2023/07/08 06:32:35;;;;;;;;;;;19.40;71.20;;;;;;5095498;28;20369;-64
2023/07/08 06:35:02;;;;;;;;;;;19.10;71.80;;;;;;5095379;28;19937;-64
2023/07/08 06:37:28;;;;;;;;;;;18.80;72.70;;;;;;5094928;28;19908;-63
2023/07/08 06:39:55;;;;;;;;;;;18.60;72.60;;;;;;5095183;28;19931;-63
2023/07/08 06:42:21;;;;;;;;;;;18.50;73.70;;;;;;5095192;28;19961;-63
2023/07/08 06:44:51;;;;;;;;;;;18.30;73.50;;;;;;5095045;28;20566;-63
2023/07/08 06:47:21;;;;;;;;;;;18.20;74.00;;;;;;5094974;28;19915;-63
2023/07/08 06:49:48;;;;;;;;;;;18.10;74.40;;;;;;5095322;28;19940;-63
2023/07/08 06:52:15;;;;;;;;;;;17.90;75.10;;;;;;5094954;28;19908;-66
2023/07/08 06:54:42;;;;;;;;;;;17.90;75.60;;;;;;5094860;28;19911;-62
2023/07/08 06:57:08;;;;;;;;;;;17.70;76.10;;;;;;5094787;28;19908;-65
2023/07/08 06:59:35;;;;;;;;;;;17.60;76.50;;;;;;5094798;28;19912;-62
2023/07/08 07:02:02;;;;;;;;;;;17.50;76.80;;;;;;5094581;28;20011;-64
2023/07/08 07:04:32;;;;;;;;;;;17.40;77.10;;;;;;5094825;28;20390;-62
2023/07/08 07:06:58;;;;;;;;;;;17.30;77.50;;;;;;5094640;28;19908;-64
2023/07/08 07:09:25;;;;;;;;;;;17.20;78.20;;;;;;5094733;28;19911;-63
2023/07/08 07:11:52;;;;;;;;;;;17.10;79.00;;;;;;5094456;28;19991;-64
2023/07/08 07:14:18;;;;;;;;;;;17.00;79.50;;;;;;5094501;28;19908;-64
2023/07/08 07:16:45;;;;;;;;;;;17.00;80.00;;;;;;5094462;28;19908;-63
2023/07/08 07:19:12;;;;;;;;;;;16.90;80.30;;;;;;5094388;28;19915;-63
2023/07/08 07:21:38;;;;;;;;;;;16.80;80.60;;;;;;5094448;28;19915;-63
2023/07/08 07:24:06;;;;;;;;;;;16.80;81.10;;;;;;5094021;28;20289;-65
2023/07/08 07:26:33;;;;;;;;;;;16.70;81.40;;;;;;5094266;28;19908;-63
2023/07/08 07:29:00;;;;;;;;;;;16.60;81.70;;;;;;5094404;28;19914;-66
2023/07/08 07:31:26;;;;;;;;;;;16.60;82.00;;;;;;5094260;28;19916;-64
2023/07/08 07:33:53;;;;;;;;;;;16.50;82.20;;;;;;5094164;28;19908;-65
2023/07/08 07:36:20;;;;;;;;;;;16.50;82.60;;;;;;5093966;28;20365;-64
2023/07/08 07:38:46;;;;;;;;;;;16.50;83.00;;;;;;5093984;28;19908;-66
2023/07/08 07:41:13;;;;;;;;;;;16.40;83.30;;;;;;5093930;28;19987;-69
2023/07/08 07:43:39;;;;;;;;;;;16.30;83.80;;;;;;5094122;28;19916;-67
2023/07/08 07:46:07;;;;;;;;;;;16.30;84.10;;;;;;5093704;28;20408;-64
2023/07/08 07:48:34;;;;;;;;;;;16.20;84.40;;;;;;5093646;28;19931;-67
2023/07/08 07:51:01;;;;;;;;;;;16.20;84.70;;;;;;5093759;28;19908;-64
2023/07/08 07:53:27;;;;;;;;;;;16.20;85.00;;;;;;5093648;28;19908;-65
2023/07/08 07:56:00;;;;;;;;;;;16.10;85.50;;;;;;5093393;28;20030;-65
2023/07/08 07:58:27;;;;;;;;;;;16.10;85.70;;;;;;5093770;28;19908;-66
2023/07/08 08:00:54;;;;;;;;;;;16.00;86.10;;;;;;5093582;28;19990;-65
2023/07/08 08:03:21;;;;;;;;;;;16.00;86.30;;;;;;5093664;28;19916;-65
2023/07/08 08:05:48;;;;;;;;;;;15.90;86.60;;;;;;5093595;28;19908;-65
2023/07/08 08:08:15;;;;;;;;;;;15.90;86.90;;;;;;5093442;28;20353;-63
2023/07/08 08:10:45;;;;;;;;;;;15.80;87.20;;;;;;5075416;28;19912;-69
2023/07/08 08:13:12;;;;;;;;;;;15.80;87.60;;;;;;5093513;28;19908;-65
2023/07/08 08:15:39;;;;;;;;;;;15.80;87.60;;;;;;5093542;28;19908;-65
2023/07/08 08:18:06;;;;;;;;;;;15.70;88.00;;;;;;5093601;28;19908;-63
2023/07/08 08:20:32;;;;;;;;;;;15.60;88.10;;;;;;5093356;28;19999;-66
2023/07/08 08:22:59;;;;;;;;;;;15.60;88.40;;;;;;5093262;28;19908;-64
2023/07/08 08:25:26;;;;;;;;;;;15.50;88.40;;;;;;5093344;28;19919;-65
2023/07/08 08:27:52;;;;;;;;;;;15.50;88.40;;;;;;5093329;28;19908;-63
2023/07/08 08:30:19;;;;;;;;;;;15.50;88.60;;;;;;5093127;28;19908;-63
2023/07/08 08:32:46;;;;;;;;;;;15.50;88.80;;;;;;5093113;28;20395;-64
2023/07/08 08:35:13;;;;;;;;;;;15.50;88.90;;;;;;5092776;28;19987;-66
2023/07/08 08:37:39;;;;;;;;;;;15.40;89.10;;;;;;5093119;28;20349;-69
2023/07/08 08:40:07;;;;;;;;;;;15.30;89.30;;;;;;5092906;28;19908;-65
2023/07/08 08:42:35;;;;;;;;;;;15.30;89.50;;;;;;5093165;28;19954;-67
2023/07/08 08:45:03;;;;;;;;;;;15.30;89.50;;;;;;5092917;28;20369;-65
2023/07/08 08:47:40;;;;;;;;;;;15.30;89.40;;;;;;5092305;28;20224;-62
2023/07/08 08:50:10;;;;;;;;;;;15.20;89.50;;;;;;5092958;28;20258;-65
2023/07/08 08:52:39;;;;;;;;;;;15.20;89.60;;;;;;5093267;28;19962;-66
2023/07/08 08:55:12;;;;;;;;;;;15.20;89.60;;;;;;5093148;28;19912;-67
2023/07/08 08:57:44;;;;;;;;;;;15.10;89.20;;;;;;5092835;28;19931;-66
2023/07/08 09:00:13;;;;;;;;;;;15.20;89.20;;;;;;5092621;28;20288;-64
2023/07/08 09:02:54;;;;;;;;;;;15.10;89.20;;;;;;5092982;28;19912;-66
2023/07/08 09:05:20;;;;;;;;;;;15.00;89.30;;;;;;5092881;28;19916;-62
2023/07/08 09:07:47;;;;;;;;;;;15.10;89.40;;;;;;5092928;28;19908;-66
2023/07/08 09:10:25;;;;;;;;;;;15.00;89.30;;;;;;5092869;28;19908;-64
2023/07/08 09:12:53;;;;;;;;;;;15.00;89.30;;;;;;5093051;28;19916;-65
2023/07/08 09:15:20;;;;;;;;;;;15.00;89.30;;;;;;5092578;28;19993;-65
2023/07/08 09:17:49;;;;;;;;;;;15.00;89.00;;;;;;5092830;28;20011;-66
2023/07/08 09:20:16;;;;;;;;;;;14.90;89.00;;;;;;5092597;28;19914;-66
2023/07/08 09:22:46;;;;;;;;;;;14.90;89.00;;;;;;5092642;28;20368;-65
2023/07/08 09:25:16;;;;;;;;;;;14.90;88.60;;;;;;5093111;28;20368;-63
2023/07/08 09:27:42;;;;;;;;;;;15.00;88.50;;;;;;5096399;28;19908;-69
2023/07/08 09:30:14;;;;;;;;;;;15.00;88.50;;;;;;5096689;28;19999;-64
2023/07/08 09:32:40;;;;;;;;;;;14.90;88.40;;;;;;5096582;28;19915;-63
2023/07/08 09:35:08;;;;;;;;;;;15.00;88.10;;;;;;5078281;28;19989;-64
2023/07/08 09:37:38;;;;;;;;;;;15.00;87.80;;;;;;5096380;28;19908;-64
2023/07/08 09:40:25;;;;;;;;;;;14.90;87.60;;;;;;5096341;28;19915;-64
2023/07/08 09:42:53;;;;;;;;;;;14.90;87.40;;;;;;5085787;28;20007;-70
2023/07/08 09:45:20;;;;;;;;;;;14.90;87.20;;;;;;5078509;28;19920;-63
2023/07/08 09:47:47;;;;;;;;;;;14.90;86.80;;;;;;5096347;28;19944;-64
2023/07/08 09:50:22;;;;;;;;;;;14.80;86.40;;;;;;5096254;28;19919;-64
2023/07/08 09:52:50;;;;;;;;;;;14.90;86.00;;;;;;5096475;28;19908;-65
2023/07/08 09:55:17;;;;;;;;;;;14.90;85.80;;;;;;5096690;28;19953;-65
2023/07/08 09:57:45;;;;;;;;;;;14.90;85.70;;;;;;5096347;28;19908;-64
2023/07/08 10:00:15;;;;;;;;;;;14.90;85.70;;;;;;5096367;28;19999;-65
2023/07/08 10:02:46;;;;;;;;;;;14.80;85.30;;;;;;5096734;28;19958;-63
2023/07/08 10:05:19;;;;;;;;;;;14.80;85.10;;;;;;5078194;28;19916;-64
2023/07/08 10:07:47;;;;;;;;;;;14.90;84.60;;;;;;5096299;28;19944;-64
2023/07/08 10:10:18;;;;;;;;;;;15.00;84.40;;;;;;5095852;28;19915;-63
2023/07/08 10:13:04;;;;;;;;;;;15.00;83.90;;;;;;5096517;28;19915;-67
2023/07/08 10:15:31;;;;;;;;;;;15.00;83.80;;;;;;5095849;28;19961;-66
2023/07/08 10:17:58;;;;;;;;;;;15.10;83.80;;;;;;5096394;28;19912;-66
2023/07/08 10:20:34;;;;;;;;;;;15.20;84.00;;;;;;5077614;28;20365;-62
2023/07/08 10:23:24;;;;;;;;;;;15.10;84.10;;;;;;5095795;28;19908;-63
2023/07/08 10:25:59;;;;;;;;;;;15.20;84.40;;;;;;5087849;28;20323;-65
2023/07/08 10:28:32;;;;;;;;;;;15.10;84.70;;;;;;5095849;28;20003;-65
2023/07/08 10:31:05;;;;;;;;;;;15.10;85.30;;;;;;5096169;28;19915;-66
2023/07/08 10:33:45;;;;;;;;;;;15.10;85.50;;;;;;5077811;28;19952;-65
2023/07/08 10:36:46;;;;;;;;;;;15.10;85.70;;;;;;5095868;28;20331;-66
2023/07/08 10:39:16;;;;;;;;;;;15.20;85.80;;;;;;5033364;28;19909;-63
2023/07/08 10:41:57;;;;;;;;;;;15.10;86.20;;;;;;5084288;28;19915;-66
2023/07/08 10:44:36;;;;;;;;;;;15.00;86.20;;;;;;5095402;28;19959;-66
2023/07/08 10:47:14;;;;;;;;;;;15.10;86.30;;;;;;5095939;28;19915;-66
2023/07/08 10:49:48;;;;;;;;;;;15.10;85.80;;;;;;5095682;28;19908;-62
2023/07/08 10:52:24;;;;;;;;;;;15.10;85.90;;;;;;5095709;28;19998;-63
2023/07/08 10:54:59;;;;;;;;;;;15.00;85.70;;;;;;5076987;28;19931;-68
2023/07/08 10:57:35;;;;;;;;;;;15.00;85.70;;;;;;5095411;28;19908;-66
2023/07/08 11:00:16;;;;;;;;;;;14.90;85.80;;;;;;5095032;28;19912;-70
2023/07/08 11:03:01;;;;;;;;;;;14.90;86.00;;;;;;5076882;28;19967;-64
2023/07/08 11:05:28;;;;;;;;;;;14.90;86.10;;;;;;5094984;28;19916;-67
2023/07/08 11:07:56;;;;;;;;;;;14.80;86.10;;;;;;5094706;28;20283;-67
2023/07/08 11:10:29;;;;;;;;;;;14.80;85.80;;;;;;5094882;28;19995;-67
2023/07/08 11:13:05;;;;;;;;;;;14.70;85.80;;;;;;5094555;28;19909;-66
2023/07/08 11:15:36;;;;;;;;;;;14.70;86.10;;;;;;5094754;28;19915;-67
2023/07/08 11:18:13;;;;;;;;;;;14.60;86.00;;;;;;5094527;28;20250;-67
2023/07/08 11:20:40;;;;;;;;;;;14.60;86.10;;;;;;5094499;28;19908;-66
2023/07/08 11:23:45;;;;;;;;;;;14.70;85.60;;;;;;5076029;28;19919;-65
2023/07/08 11:26:11;;;;;;;;;;;14.60;85.10;;;;;;5032283;28;20386;-67
2023/07/08 11:28:38;;;;;;;;;;;14.70;85.20;;;;;;5032059;28;19963;-66
2023/07/08 11:31:05;;;;;;;;;;;14.60;84.70;;;;;;5061544;28;19961;-68
2023/07/08 11:33:34;;;;;;;;;;;14.60;84.90;;;;;;5094182;28;20280;-66
2023/07/08 11:36:01;;;;;;;;;;;14.60;84.90;;;;;;5094262;28;19965;-65
2023/07/08 11:38:27;;;;;;;;;;;14.50;84.20;;;;;;5094379;28;20016;-66
2023/07/08 11:41:04;;;;;;;;;;;14.60;83.90;;;;;;5093946;28;20383;-65
2023/07/08 11:43:49;;;;;;;;;;;14.60;83.90;;;;;;5093898;28;20369;-67
2023/07/08 11:46:20;;;;;;;;;;;14.60;83.70;;;;;;5093909;28;19920;-66
2023/07/08 11:48:48;;;;;;;;;;;14.60;83.80;;;;;;5074910;28;20011;-66
2023/07/08 11:51:18;;;;;;;;;;;14.50;83.40;;;;;;5094008;28;20322;-67
2023/07/08 11:53:49;;;;;;;;;;;14.50;83.00;;;;;;5093874;28;19908;-66
2023/07/08 11:56:16;;;;;;;;;;;14.70;83.00;;;;;;5093967;28;19908;-67
2023/07/08 11:58:58;;;;;;;;;;;14.60;82.90;;;;;;5075458;28;19958;-66
2023/07/08 12:01:48;;;;;;;;;;;14.60;82.80;;;;;;5093707;28;20364;-68
2023/07/08 12:04:37;;;;;;;;;;;14.60;82.90;;;;;;5064457;28;19916;-68
2023/07/08 12:07:04;;;;;;;;;;;14.70;82.80;;;;;;5093372;28;19914;-67
2023/07/08 12:09:36;;;;;;;;;;;14.60;83.10;;;;;;5093005;28;20319;-64
2023/07/08 12:12:06;;;;;;;;;;;14.60;83.40;;;;;;5093450;28;19908;-63
2023/07/08 12:14:33;;;;;;;;;;;14.50;83.60;;;;;;5093540;28;19915;-63
2023/07/08 12:16:59;;;;;;;;;;;14.50;84.00;;;;;;5093662;28;19908;-65
2023/07/08 12:19:30;;;;;;;;;;;14.40;84.20;;;;;;5093136;28;19915;-65
2023/07/08 12:21:57;;;;;;;;;;;14.40;84.50;;;;;;5093130;28;19916;-62
2023/07/08 12:24:26;;;;;;;;;;;14.30;84.70;;;;;;5093361;28;19916;-64
2023/07/08 12:26:53;;;;;;;;;;;14.40;84.50;;;;;;5093249;28;20317;-63
2023/07/08 12:29:20;;;;;;;;;;;14.30;84.60;;;;;;5093331;28;19908;-63
2023/07/08 12:31:47;;;;;;;;;;;14.30;84.80;;;;;;5093069;28;20432;-63
2023/07/08 12:34:16;;;;;;;;;;;14.30;84.90;;;;;;5092990;28;19953;-63
2023/07/08 12:36:43;;;;;;;;;;;14.30;85.30;;;;;;5093300;28;20529;-63
2023/07/08 12:39:12;;;;;;;;;;;14.20;85.60;;;;;;5093163;28;19915;-64
2023/07/08 12:41:38;;;;;;;;;;;14.10;85.80;;;;;;5093101;28;20383;-63
2023/07/08 12:44:08;;;;;;;;;;;14.10;85.90;;;;;;5092541;28;19916;-63
2023/07/08 12:46:35;;;;;;;;;;;14.10;86.10;;;;;;5092852;28;19974;-62
2023/07/08 12:49:01;;;;;;;;;;;14.10;86.10;;;;;;5092867;28;19916;-63
2023/07/08 12:51:28;;;;;;;;;;;14.10;86.20;;;;;;5092834;28;19915;-62
2023/07/08 12:53:55;;;;;;;;;;;14.10;86.20;;;;;;5093032;28;20360;-62
2023/07/08 12:56:23;;;;;;;;;;;14.10;86.20;;;;;;5093054;28;19908;-64
2023/07/08 12:58:51;;;;;;;;;;;14.10;86.10;;;;;;5092930;28;19915;-64
2023/07/08 13:01:19;;;;;;;;;;;14.10;86.80;;;;;;5095536;28;19930;-64
2023/07/08 13:03:48;;;;;;;;;;;14.10;86.30;;;;;;5097168;28;19999;-64
2023/07/08 13:06:16;;;;;;;;;;;14.00;86.80;;;;;;5097123;28;19995;-63
2023/07/08 13:08:43;;;;;;;;;;;13.80;87.00;;;;;;5097053;28;20258;-65
2023/07/08 13:11:13;;;;;;;;;;;13.90;87.00;;;;;;5096831;28;19909;-65
2023/07/08 13:13:48;;;;;;;;;;;13.90;87.00;;;;;;5096791;28;20428;-63
2023/07/08 13:16:15;;;;;;;;;;;13.90;87.40;;;;;;5096976;28;19908;-65
2023/07/08 13:18:42;;;;;;;;;;;13.80;87.20;;;;;;5096934;28;19912;-64
2023/07/08 13:21:13;;;;;;;;;;;13.90;87.20;;;;;;5097351;28;19912;-64
2023/07/08 13:23:40;;;;;;;;;;;13.90;87.30;;;;;;5096518;28;20426;-65
2023/07/08 13:26:18;;;;;;;;;;;13.90;87.20;;;;;;5096404;28;19912;-65
2023/07/08 13:28:45;;;;;;;;;;;13.90;87.10;;;;;;5096493;28;20393;-64
2023/07/08 13:31:22;;;;;;;;;;;14.00;87.10;;;;;;5096224;28;19916;-64
2023/07/08 13:33:53;;;;;;;;;;;14.00;87.30;;;;;;5096475;28;20316;-64
2023/07/08 13:36:22;;;;;;;;;;;14.00;87.60;;;;;;5096439;28;19915;-65
2023/07/08 13:38:49;;;;;;;;;;;13.90;87.60;;;;;;5096362;28;19915;-63
2023/07/08 13:41:20;;;;;;;;;;;13.90;87.60;;;;;;5096372;28;20277;-63
2023/07/08 13:43:47;;;;;;;;;;;13.90;87.70;;;;;;5096528;28;20011;-64
2023/07/08 13:46:31;;;;;;;;;;;13.90;87.90;;;;;;5096068;28;20443;-68
2023/07/08 13:49:00;;;;;;;;;;;14.00;87.90;;;;;;5096273;28;19916;-66
2023/07/08 13:51:29;;;;;;;;;;;14.00;88.00;;;;;;5096193;28;19915;-66
2023/07/08 13:54:02;;;;;;;;;;;13.90;88.10;;;;;;5096488;28;19916;-69
2023/07/08 13:56:33;;;;;;;;;;;13.90;88.40;;;;;;5096067;28;19915;-66
2023/07/08 13:59:07;;;;;;;;;;;13.80;88.40;;;;;;5096059;28;20322;-67
2023/07/08 14:01:34;;;;;;;;;;;13.90;88.60;;;;;;5095819;28;19915;-66
2023/07/08 14:04:04;;;;;;;;;;;13.80;88.70;;;;;;5095887;28;19916;-63
2023/07/08 14:06:32;;;;;;;;;;;13.80;88.90;;;;;;5096170;28;19951;-64
2023/07/08 14:09:04;;;;;;;;;;;13.80;89.10;;;;;;5095777;28;20353;-64
2023/07/08 14:11:30;;;;;;;;;;;13.80;89.30;;;;;;5094921;28;20486;-64
2023/07/08 14:13:57;;;;;;;;;;;13.70;89.40;;;;;;5095488;28;20393;-64
2023/07/08 14:16:27;;;;;;;;;;;13.70;89.80;;;;;;5095831;28;20391;-64
2023/07/08 14:18:54;;;;;;;;;;;13.70;89.30;;;;;;5095596;28;19915;-63
2023/07/08 14:21:21;;;;;;;;;;;13.80;88.60;;;;;;5095509;28;20261;-63
2023/07/08 14:23:48;;;;;;;;;;;13.80;88.80;;;;;;5095552;28;19977;-64
2023/07/08 14:26:14;;;;;;;;;;;13.80;88.80;;;;;;5095758;28;20399;-65